createdAt,value
2019-01-23T00:00:01.283Z,98456.45
2019-01-23T00:00:32.449Z,98663.26
2019-01-23T00:01:03.620Z,98665.39
2019-01-23T00:01:34.796Z,98663.68
2019-01-23T00:02:05.970Z,98667.48
2019-01-23T00:02:37.169Z,98663.20
2019-01-23T00:03:08.419Z,98660.66
2019-01-23T00:03:39.614Z,98654.21
2019-01-23T00:04:10.797Z,98645.20
2019-01-23T00:04:41.975Z,98648.16
2019-01-23T00:05:13.236Z,98640.85
2019-01-23T00:05:44.426Z,98635.67
2019-01-23T00:06:15.598Z,98636.09
2019-01-23T00:06:46.767Z,98630.49
2019-01-23T00:07:17.957Z,98623.16
2019-01-23T00:07:49.191Z,98620.93
2019-01-23T00:08:20.428Z,98617.48
2019-01-23T00:08:51.626Z,98612.75
2019-01-23T00:09:22.802Z,98611.44
2019-01-23T00:09:54.292Z,98616.97
2019-01-23T00:10:25.488Z,98622.55
2019-01-23T00:10:56.656Z,98633.70
2019-01-23T00:11:27.845Z,98630.25
2019-01-23T00:11:59.020Z,98637.56
2019-01-23T00:12:30.204Z,98629.86
2019-01-23T00:13:01.464Z,98625.99
2019-01-23T00:13:32.677Z,98620.06
2019-01-23T00:14:03.858Z,98621.41
2019-01-23T00:14:35.071Z,98618.45
2019-01-23T00:15:06.248Z,98616.70
2019-01-23T00:15:37.416Z,98621.89
2019-01-23T00:16:09.665Z,98623.98
2019-01-23T00:16:40.887Z,98626.50
2019-01-23T00:17:12.902Z,98622.64
2019-01-23T00:17:44.102Z,98618.30
2019-01-23T00:18:15.264Z,98616.97
2019-01-23T00:18:46.431Z,98608.83
2019-01-23T00:19:17.610Z,98607.50
2019-01-23T00:19:48.773Z,98603.19
2019-01-23T00:20:20.015Z,98606.99
2019-01-23T00:20:51.189Z,98604.41
2019-01-23T00:21:22.382Z,98601.39
2019-01-23T00:21:53.578Z,98601.39
2019-01-23T00:22:24.775Z,98599.23
2019-01-23T00:22:55.967Z,98592.78
2019-01-23T00:23:27.183Z,98599.58
2019-01-23T00:23:58.350Z,98597.42
2019-01-23T00:24:29.525Z,98603.00
2019-01-23T00:25:00.684Z,98611.12
2019-01-23T00:25:31.914Z,98607.63
2019-01-23T00:26:03.109Z,98597.33
2019-01-23T00:26:34.272Z,98591.33
2019-01-23T00:27:05.430Z,98592.17
2019-01-23T00:27:36.613Z,98588.75
2019-01-23T00:28:07.821Z,98584.02
2019-01-23T00:28:42.459Z,98586.59
2019-01-23T00:29:11.989Z,98585.72
2019-01-23T00:29:43.175Z,98590.81
2019-01-23T00:30:14.428Z,98589.07
2019-01-23T00:30:45.614Z,98589.11
2019-01-23T00:31:16.860Z,98593.45
2019-01-23T00:31:48.034Z,98589.59
2019-01-23T00:32:19.208Z,98596.45
2019-01-23T00:32:50.468Z,98595.55
2019-01-23T00:33:21.635Z,98602.86
2019-01-23T00:33:52.841Z,98608.86
2019-01-23T00:34:24.032Z,98604.54
2019-01-23T00:34:55.219Z,98598.52
2019-01-23T00:35:26.434Z,98601.13
2019-01-23T00:35:57.590Z,98603.34
2019-01-23T00:36:28.799Z,98606.02
2019-01-23T00:37:00.024Z,98605.22
2019-01-23T00:37:31.198Z,98606.58
2019-01-23T00:38:02.415Z,98614.37
2019-01-23T00:38:33.606Z,98615.69
2019-01-23T00:39:04.805Z,98612.72
2019-01-23T00:39:35.968Z,98608.89
2019-01-23T00:40:07.156Z,98604.60
2019-01-23T00:40:38.357Z,98596.06
2019-01-23T00:41:09.580Z,98599.03
2019-01-23T00:41:40.746Z,98596.00
2019-01-23T00:42:11.923Z,98597.71
2019-01-23T00:42:43.090Z,98599.87
2019-01-23T00:43:14.326Z,98598.58
2019-01-23T00:43:45.537Z,98596.84
2019-01-23T00:44:16.750Z,98603.28
2019-01-23T00:44:47.914Z,98603.28
2019-01-23T00:45:19.100Z,98604.09
2019-01-23T00:45:50.302Z,98606.28
2019-01-23T00:46:21.488Z,98601.91
2019-01-23T00:46:52.692Z,98598.84
2019-01-23T00:47:23.870Z,98606.99
2019-01-23T00:47:55.077Z,98600.55
2019-01-23T00:48:26.295Z,98607.38
2019-01-23T00:48:57.471Z,98612.98
2019-01-23T00:49:28.684Z,98607.41
2019-01-23T00:49:59.848Z,98612.14
2019-01-23T00:50:31.027Z,98618.66
2019-01-23T00:51:02.267Z,98616.11
2019-01-23T00:51:34.535Z,98622.22
2019-01-23T00:52:05.715Z,98618.87
2019-01-23T00:52:36.888Z,98617.64
2019-01-23T00:53:08.061Z,98625.39
2019-01-23T00:53:39.232Z,98621.17
2019-01-23T00:54:10.442Z,98617.37
2019-01-23T00:54:41.672Z,98622.52
2019-01-23T00:55:12.854Z,98619.94
2019-01-23T00:55:44.046Z,98624.20
2019-01-23T00:56:15.230Z,98616.08
2019-01-23T00:56:46.439Z,98615.66
2019-01-23T00:57:17.651Z,98619.10
2019-01-23T00:57:48.912Z,98618.66
2019-01-23T00:58:20.113Z,98616.08
2019-01-23T00:58:51.314Z,98616.02
2019-01-23T00:59:24.633Z,98615.16
2019-01-23T00:59:55.838Z,98617.30
2019-01-23T01:00:27.040Z,98616.08
2019-01-23T01:00:58.216Z,98620.33
2019-01-23T01:01:29.392Z,98618.20
2019-01-23T01:02:00.552Z,98616.92
2019-01-23T01:02:32.097Z,98616.47
2019-01-23T01:03:03.281Z,98622.94
2019-01-23T01:03:34.486Z,98626.33
2019-01-23T01:04:05.684Z,98626.74
2019-01-23T01:04:36.899Z,98628.87
2019-01-23T01:05:08.078Z,98631.42
2019-01-23T01:05:39.293Z,98628.84
2019-01-23T01:06:10.506Z,98629.26
2019-01-23T01:06:41.668Z,98629.73
2019-01-23T01:07:12.856Z,98623.33
2019-01-23T01:07:44.038Z,98628.06
2019-01-23T01:08:15.223Z,98624.65
2019-01-23T01:08:46.478Z,98621.20
2019-01-23T01:09:17.649Z,98621.56
2019-01-23T01:09:48.832Z,98622.37
2019-01-23T01:10:20.046Z,98621.02
2019-01-23T01:10:51.683Z,98619.31
2019-01-23T01:11:22.869Z,98620.93
2019-01-23T01:11:54.042Z,98619.16
2019-01-23T01:12:25.247Z,98614.87
2019-01-23T01:12:56.459Z,98613.14
2019-01-23T01:13:27.719Z,98614.02
2019-01-23T01:13:58.893Z,98605.44
2019-01-23T01:14:30.083Z,98606.31
2019-01-23T01:15:01.257Z,98606.31
2019-01-23T01:15:32.457Z,98608.86
2019-01-23T01:16:03.686Z,98609.73
2019-01-23T01:16:34.863Z,98606.28
2019-01-23T01:17:06.049Z,98606.22
2019-01-23T01:17:37.243Z,98610.47
2019-01-23T01:18:08.473Z,98593.75
2019-01-23T01:18:39.704Z,98590.69
2019-01-23T01:19:10.893Z,98588.95
2019-01-23T01:19:42.083Z,98590.27
2019-01-23T01:20:13.313Z,98592.81
2019-01-23T01:20:44.532Z,98597.09
2019-01-23T01:21:15.806Z,98594.98
2019-01-23T01:21:46.982Z,98594.94
2019-01-23T01:22:18.197Z,98596.62
2019-01-23T01:22:49.405Z,98597.42
2019-01-23T01:23:20.573Z,98591.78
2019-01-23T01:23:51.786Z,98595.20
2019-01-23T01:24:23.015Z,98598.19
2019-01-23T01:24:54.195Z,98603.25
2019-01-23T01:25:25.388Z,98599.28
2019-01-23T01:25:56.540Z,98603.92
2019-01-23T01:26:27.760Z,98600.89
2019-01-23T01:26:58.941Z,98601.72
2019-01-23T01:27:30.165Z,98600.05
2019-01-23T01:28:01.314Z,98599.59
2019-01-23T01:28:32.504Z,98600.89
2019-01-23T01:29:03.713Z,98595.80
2019-01-23T01:29:34.932Z,98596.25
2019-01-23T01:30:06.107Z,98590.29
2019-01-23T01:30:37.295Z,98589.91
2019-01-23T01:31:08.468Z,98595.52
2019-01-23T01:31:39.682Z,98589.11
2019-01-23T01:32:10.859Z,98586.98
2019-01-23T01:32:42.091Z,98587.81
2019-01-23T01:33:13.262Z,98592.17
2019-01-23T01:33:44.451Z,98596.91
2019-01-23T01:34:15.641Z,98595.65
2019-01-23T01:34:46.816Z,98597.42
2019-01-23T01:35:17.984Z,98589.27
2019-01-23T01:35:49.203Z,98593.14
2019-01-23T01:36:20.362Z,98591.88
2019-01-23T01:36:51.578Z,98585.44
2019-01-23T01:37:22.731Z,98583.25
2019-01-23T01:37:53.962Z,98577.25
2019-01-23T01:38:25.133Z,98571.68
2019-01-23T01:38:56.302Z,98565.27
2019-01-23T01:39:27.521Z,98564.02
2019-01-23T01:39:58.695Z,98566.59
2019-01-23T01:40:29.870Z,98566.20
2019-01-23T01:41:01.042Z,98567.91
2019-01-23T01:41:32.226Z,98565.30
2019-01-23T01:42:03.395Z,98572.52
2019-01-23T01:42:34.573Z,98572.45
2019-01-23T01:43:05.789Z,98580.19
2019-01-23T01:43:36.964Z,98574.58
2019-01-23T01:44:08.146Z,98575.90
2019-01-23T01:44:39.373Z,98590.11
2019-01-23T01:45:10.556Z,98586.34
2019-01-23T01:45:41.742Z,98583.34
2019-01-23T01:46:12.901Z,98582.54
2019-01-23T01:46:44.095Z,98591.14
2019-01-23T01:47:15.281Z,98586.05
2019-01-23T01:47:46.461Z,98587.76
2019-01-23T01:48:17.690Z,98586.02
2019-01-23T01:48:48.860Z,98578.70
2019-01-23T01:49:20.026Z,98581.73
2019-01-23T01:49:51.193Z,98580.41
2019-01-23T01:50:22.443Z,98574.39
2019-01-23T01:50:53.604Z,98566.66
2019-01-23T01:51:24.820Z,98567.91
2019-01-23T01:51:56.051Z,98564.02
2019-01-23T01:52:27.223Z,98569.91
2019-01-23T01:52:58.410Z,98401.49
2019-01-23T01:53:29.587Z,98577.98
2019-01-23T01:54:00.801Z,98573.32
2019-01-23T01:54:31.979Z,98578.52
2019-01-23T01:55:03.152Z,98569.97
2019-01-23T01:55:34.348Z,98581.22
2019-01-23T01:56:05.523Z,98567.95
2019-01-23T01:56:36.739Z,98567.56
2019-01-23T01:57:07.916Z,98576.19
2019-01-23T01:57:39.105Z,98570.20
2019-01-23T01:58:10.406Z,98573.23
2019-01-23T01:58:41.563Z,98573.20
2019-01-23T01:59:12.791Z,98573.16
2019-01-23T01:59:43.985Z,98565.86
2019-01-23T02:00:15.148Z,98571.88
2019-01-23T02:00:46.330Z,98569.69
2019-01-23T02:01:17.499Z,98570.11
2019-01-23T02:01:48.665Z,98564.47
2019-01-23T02:02:19.857Z,98562.73
2019-01-23T02:02:51.036Z,98564.88
2019-01-23T02:03:22.254Z,98561.89
2019-01-23T02:03:53.486Z,98557.25
2019-01-23T02:04:24.693Z,98554.29
2019-01-23T02:04:55.868Z,98553.87
2019-01-23T02:05:27.057Z,98548.78
2019-01-23T02:05:58.281Z,98558.22
2019-01-23T02:06:29.446Z,98547.11
2019-01-23T02:07:00.605Z,98548.40
2019-01-23T02:07:31.796Z,98547.91
2019-01-23T02:08:03.013Z,98541.47
2019-01-23T02:08:34.225Z,98538.89
2019-01-23T02:09:05.480Z,98540.19
2019-01-23T02:09:36.668Z,98539.70
2019-01-23T02:10:07.872Z,98542.70
2019-01-23T02:10:39.119Z,98542.34
2019-01-23T02:11:10.300Z,98543.25
2019-01-23T02:11:41.491Z,98549.27
2019-01-23T02:12:12.659Z,98544.89
2019-01-23T02:12:43.857Z,98549.97
2019-01-23T02:13:15.037Z,98544.89
2019-01-23T02:13:46.227Z,98549.17
2019-01-23T02:14:17.451Z,98553.52
2019-01-23T02:14:48.622Z,98547.88
2019-01-23T02:15:19.794Z,98549.17
2019-01-23T02:15:51.017Z,98546.11
2019-01-23T02:16:22.215Z,98547.39
2019-01-23T02:16:53.392Z,98551.27
2019-01-23T02:17:24.560Z,98551.30
2019-01-23T02:17:55.797Z,98546.20
2019-01-23T02:18:26.988Z,98548.40
2019-01-23T02:18:58.150Z,98544.11
2019-01-23T02:19:29.343Z,98548.85
2019-01-23T02:20:00.540Z,98541.44
2019-01-23T02:20:31.702Z,98424.56
2019-01-23T02:21:02.891Z,98549.62
2019-01-23T02:21:34.138Z,98549.11
2019-01-23T02:22:05.301Z,98552.48
2019-01-23T02:22:38.799Z,98549.88
2019-01-23T02:23:10.982Z,98549.45
2019-01-23T02:23:42.346Z,98555.00
2019-01-23T02:24:13.883Z,98555.45
2019-01-23T02:24:45.113Z,98553.32
2019-01-23T02:25:16.280Z,98555.03
2019-01-23T02:25:47.459Z,98553.67
2019-01-23T02:26:18.669Z,98553.19
2019-01-23T02:26:49.912Z,98551.03
2019-01-23T02:27:21.034Z,98550.50
2019-01-23T02:27:53.246Z,98549.63
2019-01-23T02:28:24.433Z,98552.14
2019-01-23T02:28:55.634Z,98550.44
2019-01-23T02:29:26.807Z,98553.02
2019-01-23T02:29:58.045Z,98554.75
2019-01-23T02:30:29.246Z,98557.78
2019-01-23T02:31:00.404Z,98552.21
2019-01-23T02:31:31.603Z,98554.41
2019-01-23T02:32:02.776Z,98555.38
2019-01-23T02:32:33.964Z,98557.09
2019-01-23T02:33:05.155Z,98556.59
2019-01-23T02:33:37.342Z,98556.98
2019-01-23T02:34:08.534Z,98557.47
2019-01-23T02:34:39.740Z,98560.47
2019-01-23T02:35:10.982Z,98555.73
2019-01-23T02:35:42.192Z,98560.88
2019-01-23T02:36:13.358Z,98560.88
2019-01-23T02:36:44.550Z,98565.63
2019-01-23T02:37:15.737Z,98565.10
2019-01-23T02:37:46.927Z,98564.69
2019-01-23T02:38:18.150Z,98559.49
2019-01-23T02:38:49.336Z,98560.33
2019-01-23T02:39:20.547Z,98560.33
2019-01-23T02:39:51.753Z,98561.52
2019-01-23T02:40:22.987Z,98563.64
2019-01-23T02:40:54.170Z,98567.05
2019-01-23T02:41:25.380Z,98561.02
2019-01-23T02:41:56.595Z,98562.70
2019-01-23T02:42:27.753Z,98559.66
2019-01-23T02:42:58.939Z,98560.95
2019-01-23T02:43:30.150Z,98561.02
2019-01-23T02:44:01.318Z,98555.45
2019-01-23T02:44:32.486Z,98567.92
2019-01-23T02:45:03.710Z,98565.00
2019-01-23T02:45:34.878Z,98568.06
2019-01-23T02:46:06.069Z,98568.90
2019-01-23T02:46:38.221Z,98567.23
2019-01-23T02:47:09.400Z,98569.45
2019-01-23T02:47:40.667Z,98572.45
2019-01-23T02:48:11.823Z,98567.36
2019-01-23T02:48:43.017Z,98563.43
2019-01-23T02:49:14.171Z,98564.23
2019-01-23T02:49:45.355Z,98559.91
2019-01-23T02:50:17.445Z,98555.70
2019-01-23T02:50:48.661Z,98557.89
2019-01-23T02:51:20.038Z,98559.84
2019-01-23T02:51:51.231Z,98555.77
2019-01-23T02:52:22.449Z,98553.34
2019-01-23T02:52:53.651Z,98554.52
2019-01-23T02:53:24.886Z,98559.23
2019-01-23T02:53:56.064Z,98557.98
2019-01-23T02:54:27.336Z,98558.47
2019-01-23T02:54:58.499Z,98558.95
2019-01-23T02:55:29.664Z,98562.45
2019-01-23T02:56:00.844Z,98570.22
2019-01-23T02:56:32.057Z,98568.05
2019-01-23T02:57:03.249Z,98564.26
2019-01-23T02:57:34.447Z,98569.03
2019-01-23T02:58:05.607Z,98570.33
2019-01-23T02:58:36.823Z,98563.39
2019-01-23T02:59:08.010Z,98560.55
2019-01-23T02:59:39.267Z,98564.27
2019-01-23T03:00:10.429Z,98559.41
2019-01-23T03:00:41.625Z,98560.59
2019-01-23T03:01:12.805Z,98555.89
2019-01-23T03:01:43.989Z,98556.34
2019-01-23T03:02:15.162Z,98558.62
2019-01-23T03:02:48.614Z,98555.55
2019-01-23T03:03:19.827Z,98555.66
2019-01-23T03:03:51.045Z,98551.91
2019-01-23T03:04:22.243Z,98556.98
2019-01-23T03:04:53.478Z,98556.95
2019-01-23T03:05:24.657Z,98553.54
2019-01-23T03:05:55.912Z,98546.67
2019-01-23T03:06:27.085Z,98551.52
2019-01-23T03:06:58.270Z,98546.41
2019-01-23T03:07:29.467Z,98550.31
2019-01-23T03:08:00.666Z,98545.61
2019-01-23T03:08:31.942Z,98549.89
2019-01-23T03:09:03.142Z,98549.05
2019-01-23T03:09:34.344Z,98551.71
2019-01-23T03:10:05.577Z,98552.55
2019-01-23T03:10:36.797Z,98548.75
2019-01-23T03:11:07.988Z,98549.55
2019-01-23T03:11:39.166Z,98548.64
2019-01-23T03:12:10.467Z,98549.55
2019-01-23T03:12:41.663Z,98547.84
2019-01-23T03:13:12.849Z,98555.05
2019-01-23T03:13:44.067Z,98547.66
2019-01-23T03:14:15.186Z,98551.56
2019-01-23T03:14:46.398Z,98555.16
2019-01-23T03:15:17.576Z,98550.95
2019-01-23T03:15:48.750Z,98558.23
2019-01-23T03:16:19.927Z,98549.70
2019-01-23T03:16:51.126Z,98550.19
2019-01-23T03:17:22.344Z,98550.67
2019-01-23T03:17:53.521Z,98549.35
2019-01-23T03:18:24.700Z,98551.52
2019-01-23T03:18:55.892Z,98542.18
2019-01-23T03:19:27.071Z,98543.53
2019-01-23T03:19:58.319Z,98543.16
2019-01-23T03:20:29.527Z,98542.31
2019-01-23T03:21:00.718Z,98542.32
2019-01-23T03:21:31.928Z,98547.51
2019-01-23T03:22:03.174Z,98538.14
2019-01-23T03:22:36.789Z,98540.72
2019-01-23T03:23:07.969Z,98543.33
2019-01-23T03:23:39.159Z,98549.36
2019-01-23T03:24:10.355Z,98551.93
2019-01-23T03:24:41.549Z,98553.22
2019-01-23T03:25:12.719Z,98552.83
2019-01-23T03:25:43.908Z,98550.36
2019-01-23T03:26:15.091Z,98554.61
2019-01-23T03:26:46.297Z,98550.74
2019-01-23T03:27:17.542Z,98548.66
2019-01-23T03:27:48.734Z,98550.36
2019-01-23T03:28:19.919Z,98540.05
2019-01-23T03:28:51.098Z,98542.73
2019-01-23T03:29:24.643Z,98536.39
2019-01-23T03:29:55.168Z,98535.97
2019-01-23T03:30:26.422Z,98531.72
2019-01-23T03:30:57.578Z,98539.48
2019-01-23T03:31:28.800Z,98530.84
2019-01-23T03:31:59.998Z,98531.69
2019-01-23T03:32:31.246Z,98529.94
2019-01-23T03:33:02.447Z,98532.45
2019-01-23T03:33:33.660Z,98530.71
2019-01-23T03:34:04.825Z,98528.55
2019-01-23T03:34:36.034Z,98535.80
2019-01-23T03:35:07.224Z,98538.37
2019-01-23T03:35:38.419Z,98540.08
2019-01-23T03:36:09.587Z,98539.98
2019-01-23T03:36:40.761Z,98536.53
2019-01-23T03:37:11.920Z,98541.23
2019-01-23T03:37:43.107Z,98537.41
2019-01-23T03:38:14.269Z,98534.86
2019-01-23T03:38:45.493Z,98535.77
2019-01-23T03:39:16.663Z,98533.64
2019-01-23T03:39:47.831Z,98534.90
2019-01-23T03:40:19.036Z,98532.39
2019-01-23T03:40:50.214Z,98530.71
2019-01-23T03:41:21.398Z,98532.03
2019-01-23T03:41:52.617Z,98523.92
2019-01-23T03:42:23.790Z,98528.17
2019-01-23T03:42:55.022Z,98522.56
2019-01-23T03:43:26.262Z,98523.85
2019-01-23T03:43:57.433Z,98523.85
2019-01-23T03:44:28.614Z,98527.30
2019-01-23T03:44:59.781Z,98526.47
2019-01-23T03:45:31.003Z,98528.20
2019-01-23T03:46:02.209Z,98532.97
2019-01-23T03:46:33.367Z,98526.91
2019-01-23T03:47:04.546Z,98525.59
2019-01-23T03:47:35.709Z,98524.30
2019-01-23T03:48:06.923Z,98524.72
2019-01-23T03:48:38.073Z,98518.67
2019-01-23T03:49:09.290Z,98522.11
2019-01-23T03:49:40.505Z,98521.27
2019-01-23T03:50:11.681Z,98523.82
2019-01-23T03:50:43.181Z,98524.66
2019-01-23T03:51:14.374Z,98524.17
2019-01-23T03:51:45.545Z,98523.68
2019-01-23T03:52:16.733Z,98524.06
2019-01-23T03:52:47.909Z,98527.52
2019-01-23T03:53:19.164Z,98531.41
2019-01-23T03:53:50.377Z,98531.91
2019-01-23T03:54:21.566Z,98536.22
2019-01-23T03:54:52.739Z,98533.64
2019-01-23T03:55:23.993Z,98531.06
2019-01-23T03:55:55.187Z,98532.35
2019-01-23T03:56:26.425Z,98533.64
2019-01-23T03:56:57.652Z,98532.39
2019-01-23T03:57:28.891Z,98534.58
2019-01-23T03:58:00.079Z,98531.13
2019-01-23T03:58:31.244Z,98530.33
2019-01-23T03:59:04.567Z,98533.29
2019-01-23T03:59:35.731Z,98525.98
2019-01-23T04:00:06.916Z,98528.97
2019-01-23T04:00:38.131Z,98530.19
2019-01-23T04:01:09.330Z,98520.75
2019-01-23T04:01:40.494Z,98520.83
2019-01-23T04:02:11.667Z,98522.14
2019-01-23T04:02:42.869Z,98529.04
2019-01-23T04:03:14.041Z,98533.39
2019-01-23T04:03:45.225Z,98536.84
2019-01-23T04:04:16.406Z,98541.53
2019-01-23T04:04:47.596Z,98540.70
2019-01-23T04:05:18.842Z,98543.70
2019-01-23T04:05:50.025Z,98556.94
2019-01-23T04:06:21.226Z,98559.06
2019-01-23T04:06:52.408Z,98563.73
2019-01-23T04:07:23.582Z,98561.98
2019-01-23T04:07:54.750Z,98563.24
2019-01-23T04:08:25.940Z,98561.95
2019-01-23T04:08:57.120Z,98557.19
2019-01-23T04:09:28.295Z,98555.90
2019-01-23T04:09:59.497Z,98556.73
2019-01-23T04:10:30.725Z,98545.14
2019-01-23T04:11:01.906Z,98545.14
2019-01-23T04:11:33.106Z,98545.10
2019-01-23T04:12:04.336Z,98545.94
2019-01-23T04:12:35.512Z,98545.97
2019-01-23T04:13:06.723Z,98547.27
2019-01-23T04:13:37.882Z,98548.59
2019-01-23T04:14:09.104Z,98544.75
2019-01-23T04:14:40.279Z,98548.30
2019-01-23T04:15:11.472Z,98547.08
2019-01-23T04:15:42.663Z,98543.66
2019-01-23T04:16:13.874Z,98541.95
2019-01-23T04:16:45.122Z,98541.47
2019-01-23T04:17:16.295Z,98548.33
2019-01-23T04:17:47.512Z,98546.20
2019-01-23T04:18:18.728Z,98544.92
2019-01-23T04:18:49.972Z,98550.91
2019-01-23T04:19:21.153Z,98554.80
2019-01-23T04:19:52.355Z,98553.97
2019-01-23T04:20:23.596Z,98548.81
2019-01-23T04:20:54.843Z,98557.00
2019-01-23T04:21:26.015Z,98551.84
2019-01-23T04:21:57.195Z,98561.67
2019-01-23T04:22:28.391Z,98559.58
2019-01-23T04:22:59.638Z,98563.02
2019-01-23T04:23:30.931Z,98564.76
2019-01-23T04:24:02.130Z,98566.02
2019-01-23T04:24:33.330Z,98565.56
2019-01-23T04:25:04.517Z,98567.72
2019-01-23T04:25:35.733Z,98562.57
2019-01-23T04:26:06.954Z,98559.16
2019-01-23T04:26:38.133Z,98568.63
2019-01-23T04:27:09.310Z,98564.73
2019-01-23T04:27:40.527Z,98563.44
2019-01-23T04:28:11.796Z,98563.86
2019-01-23T04:28:42.968Z,98559.16
2019-01-23T04:29:14.170Z,98560.89
2019-01-23T04:29:45.365Z,98561.41
2019-01-23T04:30:16.593Z,98554.55
2019-01-23T04:30:47.824Z,98557.99
2019-01-23T04:31:19.013Z,98548.98
2019-01-23T04:31:50.197Z,98557.12
2019-01-23T04:32:21.390Z,98557.12
2019-01-23T04:32:52.592Z,98561.86
2019-01-23T04:33:23.783Z,98561.05
2019-01-23T04:33:54.994Z,98567.52
2019-01-23T04:34:26.226Z,98567.94
2019-01-23T04:34:57.405Z,98564.02
2019-01-23T04:35:28.629Z,98561.83
2019-01-23T04:35:59.824Z,98558.48
2019-01-23T04:36:31.024Z,98564.05
2019-01-23T04:37:02.237Z,98563.56
2019-01-23T04:37:33.444Z,98559.28
2019-01-23T04:38:04.714Z,98560.57
2019-01-23T04:38:35.890Z,98559.28
2019-01-23T04:39:07.065Z,98559.25
2019-01-23T04:39:38.248Z,98556.64
2019-01-23T04:40:09.422Z,98556.61
2019-01-23T04:40:40.667Z,98552.33
2019-01-23T04:41:11.867Z,98557.45
2019-01-23T04:41:43.059Z,98553.13
2019-01-23T04:42:14.265Z,98548.78
2019-01-23T04:42:45.512Z,98555.70
2019-01-23T04:43:16.700Z,98549.66
2019-01-23T04:43:47.878Z,98559.09
2019-01-23T04:44:19.068Z,98551.36
2019-01-23T04:44:50.271Z,98551.78
2019-01-23T04:45:21.455Z,98558.22
2019-01-23T04:45:52.753Z,98553.06
2019-01-23T04:46:23.954Z,98559.93
2019-01-23T04:46:55.183Z,98559.03
2019-01-23T04:47:26.386Z,98562.47
2019-01-23T04:47:57.633Z,98561.09
2019-01-23T04:48:28.883Z,98561.95
2019-01-23T04:49:00.048Z,98561.54
2019-01-23T04:49:31.243Z,98556.83
2019-01-23T04:50:02.413Z,98558.55
2019-01-23T04:50:33.580Z,98557.67
2019-01-23T04:51:04.849Z,98553.80
2019-01-23T04:51:36.921Z,98560.67
2019-01-23T04:52:08.143Z,98561.98
2019-01-23T04:52:39.320Z,98565.05
2019-01-23T04:53:10.513Z,98570.59
2019-01-23T04:53:41.702Z,98569.37
2019-01-23T04:54:12.887Z,98572.78
2019-01-23T04:54:44.097Z,98576.64
2019-01-23T04:55:15.343Z,98577.97
2019-01-23T04:55:46.527Z,98575.87
2019-01-23T04:56:18.931Z,98570.33
2019-01-23T04:56:50.144Z,98566.47
2019-01-23T04:57:21.352Z,98563.89
2019-01-23T04:57:52.564Z,98564.27
2019-01-23T04:58:23.791Z,98556.06
2019-01-23T04:58:54.961Z,98563.38
2019-01-23T04:59:26.154Z,98562.05
2019-01-23T04:59:57.334Z,98561.19
2019-01-23T05:00:28.556Z,98556.41
2019-01-23T05:00:59.791Z,98561.19
2019-01-23T05:01:31.036Z,98560.31
2019-01-23T05:02:02.230Z,98554.80
2019-01-23T05:02:33.409Z,98559.09
2019-01-23T05:03:04.594Z,98558.64
2019-01-23T05:03:35.895Z,98556.90
2019-01-23T05:04:09.161Z,98560.28
2019-01-23T05:04:40.362Z,98566.34
2019-01-23T05:05:11.605Z,98571.94
2019-01-23T05:05:42.771Z,98568.14
2019-01-23T05:06:13.965Z,98578.41
2019-01-23T05:06:45.149Z,98577.13
2019-01-23T05:07:16.320Z,98574.55
2019-01-23T05:07:47.488Z,98579.70
2019-01-23T05:08:18.700Z,98584.41
2019-01-23T05:08:49.881Z,98585.70
2019-01-23T05:09:21.075Z,98586.53
2019-01-23T05:09:52.267Z,98587.76
2019-01-23T05:10:23.496Z,98584.37
2019-01-23T05:10:54.681Z,98583.09
2019-01-23T05:11:25.883Z,98585.22
2019-01-23T05:11:57.086Z,98587.31
2019-01-23T05:12:28.291Z,98585.60
2019-01-23T05:12:59.528Z,98583.44
2019-01-23T05:13:30.708Z,98576.94
2019-01-23T05:14:01.901Z,98581.19
2019-01-23T05:14:33.074Z,98582.83
2019-01-23T05:15:04.277Z,98580.19
2019-01-23T05:15:35.481Z,98583.56
2019-01-23T05:16:06.695Z,98588.66
2019-01-23T05:16:37.869Z,98581.75
2019-01-23T05:17:09.039Z,98587.27
2019-01-23T05:17:40.205Z,98581.16
2019-01-23T05:18:11.426Z,98449.30
2019-01-23T05:18:42.642Z,98587.96
2019-01-23T05:19:13.823Z,98586.63
2019-01-23T05:19:45.044Z,98590.57
2019-01-23T05:20:16.252Z,98587.54
2019-01-23T05:20:47.442Z,98587.58
2019-01-23T05:21:18.637Z,98593.56
2019-01-23T05:21:49.803Z,98589.25
2019-01-23T05:22:21.021Z,98590.57
2019-01-23T05:22:52.253Z,98589.63
2019-01-23T05:23:23.421Z,98584.89
2019-01-23T05:23:54.623Z,98584.78
2019-01-23T05:24:25.818Z,98580.00
2019-01-23T05:24:57.005Z,98583.42
2019-01-23T05:25:28.174Z,98586.34
2019-01-23T05:25:59.371Z,98583.66
2019-01-23T05:26:30.559Z,98585.22
2019-01-23T05:27:01.734Z,98582.59
2019-01-23T05:27:32.923Z,98583.85
2019-01-23T05:28:04.081Z,98583.02
2019-01-23T05:28:35.283Z,98583.51
2019-01-23T05:29:06.547Z,98583.16
2019-01-23T05:29:37.763Z,98584.91
2019-01-23T05:30:08.942Z,98581.45
2019-01-23T05:30:40.114Z,98578.39
2019-01-23T05:31:11.296Z,98577.55
2019-01-23T05:31:42.497Z,98576.83
2019-01-23T05:32:13.733Z,98571.25
2019-01-23T05:32:44.917Z,98572.54
2019-01-23T05:33:16.104Z,98570.42
2019-01-23T05:33:47.323Z,98573.45
2019-01-23T05:34:18.583Z,98572.62
2019-01-23T05:34:49.776Z,98585.02
2019-01-23T05:35:20.966Z,98585.02
2019-01-23T05:35:52.176Z,98590.60
2019-01-23T05:36:23.364Z,98593.17
2019-01-23T05:36:54.569Z,98594.02
2019-01-23T05:37:25.807Z,98599.14
2019-01-23T05:37:57.001Z,98596.56
2019-01-23T05:38:28.201Z,98594.89
2019-01-23T05:38:59.392Z,98592.30
2019-01-23T05:39:30.600Z,98592.30
2019-01-23T05:40:01.786Z,98588.02
2019-01-23T05:40:32.969Z,98584.15
2019-01-23T05:41:04.156Z,98579.79
2019-01-23T05:41:35.442Z,98581.98
2019-01-23T05:42:06.613Z,98577.31
2019-01-23T05:42:37.790Z,98579.52
2019-01-23T05:43:08.977Z,98587.71
2019-01-23T05:43:40.166Z,98583.46
2019-01-23T05:44:11.374Z,98589.94
2019-01-23T05:44:42.610Z,98588.66
2019-01-23T05:45:13.799Z,98585.58
2019-01-23T05:45:44.990Z,98589.84
2019-01-23T05:46:16.597Z,98581.19
2019-01-23T05:46:47.798Z,98588.02
2019-01-23T05:47:18.950Z,98587.95
2019-01-23T05:47:50.168Z,98594.39
2019-01-23T05:48:21.304Z,98583.66
2019-01-23T05:48:52.505Z,98591.02
2019-01-23T05:49:23.710Z,98588.47
2019-01-23T05:49:55.207Z,98589.31
2019-01-23T05:50:26.376Z,98591.47
2019-01-23T05:50:57.607Z,98589.77
2019-01-23T05:51:28.806Z,98588.89
2019-01-23T05:52:00.010Z,98588.02
2019-01-23T05:52:31.205Z,98592.80
2019-01-23T05:53:02.387Z,98594.16
2019-01-23T05:53:33.598Z,98595.03
2019-01-23T05:54:04.805Z,98592.48
2019-01-23T05:54:35.987Z,98590.39
2019-01-23T05:55:07.183Z,98587.82
2019-01-23T05:55:38.367Z,98587.02
2019-01-23T05:56:09.629Z,98584.89
2019-01-23T05:56:40.811Z,98584.02
2019-01-23T05:57:11.991Z,98580.57
2019-01-23T05:57:43.208Z,98583.19
2019-01-23T05:58:14.423Z,98578.86
2019-01-23T05:58:45.657Z,98584.02
2019-01-23T05:59:16.827Z,98583.22
2019-01-23T05:59:48.043Z,98585.80
2019-01-23T06:00:19.277Z,98594.38
2019-01-23T06:00:50.481Z,98594.79
2019-01-23T06:01:21.700Z,98581.44
2019-01-23T06:01:52.906Z,98587.40
2019-01-23T06:02:24.108Z,98579.20
2019-01-23T06:02:55.312Z,98579.62
2019-01-23T06:03:26.485Z,98576.14
2019-01-23T06:03:57.677Z,98581.72
2019-01-23T06:04:28.831Z,98587.71
2019-01-23T06:05:00.031Z,98587.29
2019-01-23T06:05:31.211Z,98588.09
2019-01-23T06:06:02.412Z,98589.84
2019-01-23T06:06:33.645Z,98599.28